Revere, MN (56166)

6:50 AM CDT on August 01, 2014 (GMT -0500)
CityViewRanch (KMNWESTB3) Elev 1432 ft | 44.05 °N, 95.44 °W | Change Station

Current weather conditions updated 4 minutes ago

Clear
Clear
54.4 °F
Feels Like 54.4 °F
N
0.0
Wind Variable Wind from WSW
Gusts 1.0 mph

Today is forecast to be nearly the same temperature as yesterday.

Today
High -- | Low -- °F
--% Chance of Precip.
Yesterday
High -- | Low -- °F
Precip. -- in
6:09 AM 8:45 PM
Waxing Crescent, 26% visible
Pressure 30.09 in
Visibility 10.0 miles
Clouds Clear
Dew Point 54 °F
Humidity 97%
Rainfall 0.00 in
Snow Depth Not available.
UV 0 out of 12
Pollen 6.80 out of 12
Air Quality Not available.
Flu Activity Not available.
METAR KTKC 011133Z AUTO 24005KT 10SM CLR 16/13 A3009 RMK AO2 T01590132

More Conditions Fewer Conditions

Pressure 30.09 in
Visibility 10.0 miles
Clouds Clear
Dew Point 54 °F
Humidity 97%
Rainfall 0.00 in
Snow Depth Not available.
UV 0 out of 12
Pollen 6.80 out of 12
Air Quality Not available.
Flu Activity Not available.
METAR KTKC 011133Z AUTO 24005KT 10SM CLR 16/13 A3009 RMK AO2 T01590132

More Conditions Fewer Conditions

10-Day Weather Forecast

Almanac

Astronomy

Aug. 01, 2014 Rise Set
Actual Time 6:09 AM CDT 8:45 PM CDT
Civil Twilight 5:35 AM CDT 9:18 PM CDT
Nautical Twilight 4:54 AM CDT 10:00 PM CDT
Astronomical Twilight 4:06 AM CDT 10:47 PM CDT
Moon 11:47 AM CDT 11:16 PM CDT
Length of Visible Light 15h 42m
Length of Day
14h 36m
Tomorrow will be 2m 21s shorter.
Waxing Crescent, 26% of the Moon is Illuminated
Today
Waxing Crescent
Aug 3
First Quarter
Aug 10
Full
Aug 17
Last Quarter
Aug 25
New

Today's Extremes

State Highs State Lows

Community

WunderPhotos

Upload Photos

1,739,538 photos uploaded!

Nearby

Snow Depth

Station Depth Elevation
No new snow has been reported.

Earthquake Activity

City Distance Mag. Time & Date
No recent earthquake activity has been reported nearby.
Minimum magnitude displayed is 2.5.

Coastal Water Temperatures

Place Temperature
No Stations Reporting

Nearby Weather Stations

Station Location Temp. Dew Point Humidity Wind Precip. Elev Updated Type
CityViewRanch, Westbrook, MN 54.4 °F 54 °F 97% WSW  at  0.0 mph 0.00 in / hr 1432 ft 6:46 AM CDT Normal
300th st, Westbrook, MN 56.3 °F 56 °F 97% South  at  2.7 mph - / hr 1457 ft 6:41 AM CDT Normal
Sorenson Seed, Storden, MN 55.2 °F 54 °F 97% SSW  at  3.0 mph 0.00 in / hr 1404 ft 6:49 AM CDT Normal
Ryan Farms, Springfield, MN 55.3 °F 55 °F 98% ESE  at  0.0 mph 0.00 in / hr 1076 ft 6:50 AM CDT Normal
Redwood Falls, Redwood Falls, MN 55.0 °F 53 °F 92% WSW  at  0.0 mph 0.00 in / hr 1053 ft 6:48 AM CDT Normal

Show More Stations Show Fewer Stations